createdAt,value
2023-02-23T00:00:20.018Z,11.31
2023-02-23T00:01:20.067Z,11.31
2023-02-23T00:02:20.003Z,11.36
2023-02-23T00:03:20.082Z,11.24
2023-02-23T00:04:19.966Z,11.28
2023-02-23T00:05:19.955Z,11.30
2023-02-23T00:06:19.995Z,11.20
2023-02-23T00:07:19.959Z,11.26
2023-02-23T00:08:19.912Z,11.26
2023-02-23T00:09:19.896Z,11.24
2023-02-23T00:10:19.886Z,11.26
2023-02-23T00:11:20.303Z,11.26
2023-02-23T00:12:19.868Z,11.28
2023-02-23T00:13:19.844Z,11.21
2023-02-23T00:14:19.856Z,11.17
2023-02-23T00:15:19.821Z,11.21
2023-02-23T00:16:19.861Z,11.20
2023-02-23T00:17:19.795Z,11.12
2023-02-23T00:18:19.785Z,11.20
2023-02-23T00:19:19.783Z,11.12
2023-02-23T00:20:19.762Z,11.06
2023-02-23T00:21:20.146Z,11.09
2023-02-23T00:22:19.735Z,11.02
2023-02-23T00:23:19.717Z,11.09
2023-02-23T00:24:19.779Z,11.13
2023-02-23T00:25:19.732Z,11.05
2023-02-23T00:26:19.688Z,11.05
2023-02-23T00:27:19.665Z,11.05
2023-02-23T00:28:19.656Z,11.13
2023-02-23T00:29:19.640Z,11.16
2023-02-23T00:30:19.668Z,11.13
2023-02-23T00:31:19.995Z,11.09
2023-02-23T00:32:19.868Z,11.19
2023-02-23T00:33:19.592Z,11.16
2023-02-23T00:34:19.581Z,11.16
2023-02-23T00:35:19.573Z,11.12
2023-02-23T00:36:19.757Z,11.06
2023-02-23T00:37:19.561Z,11.17
2023-02-23T00:38:19.531Z,11.19
2023-02-23T00:39:19.515Z,11.11
2023-02-23T00:40:19.505Z,11.08
2023-02-23T00:41:19.810Z,11.11
2023-02-23T00:42:19.500Z,11.03
2023-02-23T00:43:19.465Z,11.05
2023-02-23T00:44:19.454Z,10.99
2023-02-23T00:45:19.439Z,11.02
2023-02-23T00:46:19.495Z,10.99
2023-02-23T00:47:19.422Z,11.03
2023-02-23T00:48:19.408Z,11.11
2023-02-23T00:49:19.387Z,11.16
2023-02-23T00:50:19.381Z,11.12
2023-02-23T00:51:19.744Z,11.26
2023-02-23T00:52:19.353Z,11.27
2023-02-23T00:53:19.335Z,11.13
2023-02-23T00:54:19.327Z,11.11
2023-02-23T00:55:19.312Z,11.06
2023-02-23T00:56:19.301Z,10.99
2023-02-23T00:57:19.288Z,11.02
2023-02-23T00:58:19.278Z,11.05
2023-02-23T00:59:19.264Z,11.03
2023-02-23T01:00:19.252Z,11.03
2023-02-23T01:01:19.555Z,11.09
2023-02-23T01:02:19.259Z,11.12
2023-02-23T01:03:19.207Z,11.08
2023-02-23T01:04:19.196Z,11.23
2023-02-23T01:05:19.178Z,11.06
2023-02-23T01:06:19.170Z,11.16
2023-02-23T01:07:19.165Z,11.16
2023-02-23T01:08:19.149Z,11.08
2023-02-23T01:09:19.131Z,11.05
2023-02-23T01:10:19.120Z,11.08
2023-02-23T01:11:19.357Z,11.09
2023-02-23T01:12:19.088Z,11.02
2023-02-23T01:13:19.072Z,11.01
2023-02-23T01:14:19.063Z,11.08
2023-02-23T01:15:19.053Z,11.20
2023-02-23T01:16:19.035Z,11.27
2023-02-23T01:17:19.019Z,11.16
2023-02-23T01:18:19.034Z,11.11
2023-02-23T01:19:18.994Z,11.16
2023-02-23T01:20:18.990Z,11.17
2023-02-23T01:21:19.374Z,11.03
2023-02-23T01:22:18.958Z,10.99
2023-02-23T01:23:21.104Z,10.99
2023-02-23T01:24:18.935Z,10.98
2023-02-23T01:25:18.917Z,11.02
2023-02-23T01:26:18.906Z,10.98
2023-02-23T01:27:18.888Z,10.99
2023-02-23T01:28:18.878Z,10.86
2023-02-23T01:29:18.868Z,10.99
2023-02-23T01:30:18.853Z,10.93
2023-02-23T01:31:19.298Z,10.91
2023-02-23T01:32:18.962Z,10.81
2023-02-23T01:33:18.809Z,10.84
2023-02-23T01:34:18.819Z,10.87
2023-02-23T01:35:18.786Z,10.84
2023-02-23T01:36:18.772Z,10.78
2023-02-23T01:37:18.757Z,10.70
2023-02-23T01:38:18.755Z,10.76
2023-02-23T01:39:18.741Z,10.80
2023-02-23T01:40:18.733Z,10.70
2023-02-23T01:41:19.059Z,10.72
2023-02-23T01:42:18.695Z,10.70
2023-02-23T01:43:18.681Z,10.66
2023-02-23T01:44:18.669Z,10.69
2023-02-23T01:45:18.656Z,10.78
2023-02-23T01:46:18.722Z,10.69
2023-02-23T01:47:18.627Z,10.70
2023-02-23T01:48:18.616Z,10.73
2023-02-23T01:49:18.601Z,10.78
2023-02-23T01:50:18.614Z,10.84
2023-02-23T01:51:18.954Z,10.83
2023-02-23T01:52:18.566Z,10.76
2023-02-23T01:53:18.553Z,10.88
2023-02-23T01:54:18.542Z,10.88
2023-02-23T01:55:18.524Z,10.86
2023-02-23T01:56:18.515Z,10.88
2023-02-23T01:57:18.496Z,10.93
2023-02-23T01:58:18.489Z,10.87
2023-02-23T01:59:18.474Z,10.78
2023-02-23T02:00:18.463Z,10.75
2023-02-23T02:01:18.824Z,10.68
2023-02-23T02:02:18.437Z,10.69
2023-02-23T02:03:18.423Z,10.73
2023-02-23T02:04:18.412Z,10.65
2023-02-23T02:05:18.443Z,10.68
2023-02-23T02:06:18.445Z,10.69
2023-02-23T02:07:18.367Z,10.76
2023-02-23T02:08:18.363Z,10.78
2023-02-23T02:09:18.389Z,10.70
2023-02-23T02:10:18.330Z,10.69
2023-02-23T02:11:18.596Z,10.65
2023-02-23T02:12:18.304Z,10.57
2023-02-23T02:13:18.289Z,10.72
2023-02-23T02:14:18.276Z,10.69
2023-02-23T02:15:18.267Z,10.68
2023-02-23T02:16:18.293Z,10.66
2023-02-23T02:17:18.236Z,10.58
2023-02-23T02:18:18.221Z,10.52
2023-02-23T02:19:18.213Z,10.58
2023-02-23T02:20:18.205Z,10.57
2023-02-23T02:21:18.625Z,10.66
2023-02-23T02:22:18.193Z,10.54
2023-02-23T02:23:18.163Z,10.60
2023-02-23T02:24:18.143Z,10.60
2023-02-23T02:25:18.134Z,10.49
2023-02-23T02:26:18.117Z,10.54
2023-02-23T02:27:18.107Z,10.47
2023-02-23T02:28:18.095Z,10.39
2023-02-23T02:29:18.081Z,10.43
2023-02-23T02:30:18.065Z,10.49
2023-02-23T02:31:18.448Z,10.42
2023-02-23T02:32:18.111Z,10.42
2023-02-23T02:33:18.030Z,10.46
2023-02-23T02:34:18.016Z,10.36
2023-02-23T02:35:18.002Z,10.36
2023-02-23T02:36:17.990Z,10.42
2023-02-23T02:37:17.979Z,10.39
2023-02-23T02:38:18.038Z,10.35
2023-02-23T02:39:17.961Z,10.44
2023-02-23T02:40:17.948Z,10.34
2023-02-23T02:41:18.307Z,10.39
2023-02-23T02:42:17.909Z,10.38
2023-02-23T02:43:17.898Z,10.42
2023-02-23T02:44:17.880Z,10.43
2023-02-23T02:45:17.876Z,10.39
2023-02-23T02:46:17.931Z,10.39
2023-02-23T02:47:17.855Z,10.39
2023-02-23T02:48:17.829Z,10.43
2023-02-23T02:49:17.834Z,10.39
2023-02-23T02:50:17.815Z,10.38
2023-02-23T02:51:18.265Z,10.39
2023-02-23T02:52:17.781Z,10.39
2023-02-23T02:53:17.768Z,10.47
2023-02-23T02:54:17.809Z,10.36
2023-02-23T02:55:17.745Z,10.31
2023-02-23T02:56:17.728Z,10.36
2023-02-23T02:57:17.716Z,10.31
2023-02-23T02:58:17.724Z,10.43
2023-02-23T02:59:17.691Z,10.39
2023-02-23T03:00:17.677Z,10.46
2023-02-23T03:01:18.058Z,10.31
2023-02-23T03:02:17.650Z,10.36
2023-02-23T03:03:17.641Z,10.39
2023-02-23T03:04:17.623Z,10.36
2023-02-23T03:05:17.701Z,10.42
2023-02-23T03:06:17.596Z,10.38
2023-02-23T03:07:17.595Z,10.32
2023-02-23T03:08:17.570Z,10.36
2023-02-23T03:09:17.561Z,10.31
2023-02-23T03:10:17.560Z,10.36
2023-02-23T03:11:17.944Z,10.24
2023-02-23T03:12:17.519Z,10.28
2023-02-23T03:13:17.507Z,10.28
2023-02-23T03:14:17.493Z,10.32
2023-02-23T03:15:17.479Z,10.24
2023-02-23T03:16:17.518Z,10.24
2023-02-23T03:17:17.454Z,10.28
2023-02-23T03:18:17.453Z,10.32
2023-02-23T03:19:17.434Z,10.29
2023-02-23T03:20:17.438Z,10.26
2023-02-23T03:21:17.839Z,10.29
2023-02-23T03:22:17.434Z,10.29
2023-02-23T03:23:17.374Z,10.26
2023-02-23T03:24:17.356Z,10.18
2023-02-23T03:25:17.348Z,10.20
2023-02-23T03:26:17.359Z,10.20
2023-02-23T03:27:17.320Z,10.28
2023-02-23T03:28:17.305Z,10.25
2023-02-23T03:29:17.339Z,10.24
2023-02-23T03:30:17.280Z,10.17
2023-02-23T03:31:17.893Z,10.18
2023-02-23T03:32:17.410Z,10.26
2023-02-23T03:33:17.243Z,10.11
2023-02-23T03:34:17.231Z,10.14
2023-02-23T03:35:17.219Z,10.18
2023-02-23T03:36:17.209Z,10.18
2023-02-23T03:37:17.194Z,10.25
2023-02-23T03:38:17.171Z,10.24
2023-02-23T03:39:17.174Z,10.24
2023-02-23T03:40:17.144Z,10.13
2023-02-23T03:41:17.552Z,10.16
2023-02-23T03:42:17.147Z,10.31
2023-02-23T03:43:17.111Z,10.20
2023-02-23T03:44:17.101Z,10.32
2023-02-23T03:45:17.084Z,10.29
2023-02-23T03:46:17.085Z,10.16
2023-02-23T03:47:17.088Z,10.32
2023-02-23T03:48:17.050Z,10.22
2023-02-23T03:49:17.029Z,10.29
2023-02-23T03:50:17.013Z,10.25
2023-02-23T03:51:17.348Z,10.22
2023-02-23T03:52:16.985Z,10.14
2023-02-23T03:53:16.982Z,10.20
2023-02-23T03:54:16.958Z,10.13
2023-02-23T03:55:16.948Z,10.09
2023-02-23T03:56:16.939Z,9.99
2023-02-23T03:57:16.920Z,10.02
2023-02-23T03:58:17.053Z,10.01
2023-02-23T03:59:16.895Z,10.06
2023-02-23T04:00:16.876Z,10.01
2023-02-23T04:01:17.210Z,9.92
2023-02-23T04:02:16.903Z,10.04
2023-02-23T04:03:16.895Z,10.01
2023-02-23T04:04:16.832Z,9.99
2023-02-23T04:05:16.822Z,9.93
2023-02-23T04:06:16.796Z,9.99
2023-02-23T04:07:16.785Z,9.93
2023-02-23T04:08:16.772Z,9.89
2023-02-23T04:09:16.758Z,9.92
2023-02-23T04:10:16.748Z,9.91
2023-02-23T04:11:17.230Z,9.89
2023-02-23T04:12:16.715Z,9.83
2023-02-23T04:13:16.712Z,9.92
2023-02-23T04:14:16.707Z,9.86
2023-02-23T04:15:16.727Z,9.86
2023-02-23T04:16:16.678Z,9.86
2023-02-23T04:17:16.650Z,9.91
2023-02-23T04:18:16.636Z,9.89
2023-02-23T04:19:16.623Z,9.96
2023-02-23T04:20:16.608Z,9.83
2023-02-23T04:21:17.088Z,9.91
2023-02-23T04:22:16.580Z,9.78
2023-02-23T04:23:16.568Z,9.80
2023-02-23T04:24:16.552Z,9.83
2023-02-23T04:25:17.466Z,9.85
2023-02-23T04:26:16.525Z,9.77
2023-02-23T04:27:16.516Z,9.77
2023-02-23T04:28:16.500Z,9.80
2023-02-23T04:29:16.489Z,9.74
2023-02-23T04:30:16.493Z,9.71
2023-02-23T04:31:16.471Z,9.71
2023-02-23T04:32:16.586Z,9.71
2023-02-23T04:33:16.439Z,9.70
2023-02-23T04:34:16.421Z,9.68
2023-02-23T04:35:16.425Z,9.65
2023-02-23T04:36:16.396Z,9.59
2023-02-23T04:37:16.385Z,9.55
2023-02-23T04:38:16.375Z,9.56
2023-02-23T04:39:16.358Z,9.55
2023-02-23T04:40:16.337Z,9.53
2023-02-23T04:41:16.488Z,9.59
2023-02-23T04:42:16.313Z,9.53
2023-02-23T04:43:16.305Z,9.63
2023-02-23T04:44:16.285Z,9.50
2023-02-23T04:45:16.277Z,9.56
2023-02-23T04:46:16.420Z,9.59
2023-02-23T04:47:16.249Z,9.58
2023-02-23T04:48:16.231Z,9.60
2023-02-23T04:49:16.221Z,9.62
2023-02-23T04:51:16.638Z,9.68
2023-02-23T04:52:16.179Z,9.70
2023-02-23T04:53:16.164Z,9.59
2023-02-23T04:54:16.153Z,9.56
2023-02-23T04:55:16.136Z,9.56
2023-02-23T04:56:16.132Z,9.60
2023-02-23T04:57:16.108Z,9.67
2023-02-23T04:58:16.101Z,9.74
2023-02-23T04:59:16.079Z,9.77
2023-02-23T05:00:16.070Z,9.88
2023-02-23T05:01:16.213Z,10.01
2023-02-23T05:02:16.062Z,9.98
2023-02-23T05:03:16.038Z,9.98
2023-02-23T05:04:16.022Z,9.96
2023-02-23T05:05:16.017Z,9.89
2023-02-23T05:06:15.990Z,9.93
2023-02-23T05:07:15.973Z,9.80
2023-02-23T05:08:15.962Z,9.73
2023-02-23T05:09:15.947Z,9.78
2023-02-23T05:10:15.948Z,9.78
2023-02-23T05:11:15.968Z,9.73
2023-02-23T05:12:15.907Z,9.59
2023-02-23T05:13:15.894Z,9.68
2023-02-23T05:14:15.892Z,9.62
2023-02-23T05:15:15.868Z,9.63
2023-02-23T05:16:15.966Z,9.65
2023-02-23T05:17:15.837Z,9.67
2023-02-23T05:18:15.897Z,9.62
2023-02-23T05:19:15.808Z,9.73
2023-02-23T05:20:15.798Z,9.60
2023-02-23T05:21:15.968Z,9.63
2023-02-23T05:22:15.772Z,9.60
2023-02-23T05:23:15.754Z,9.77
2023-02-23T05:24:15.743Z,9.80
2023-02-23T05:25:15.727Z,9.88
2023-02-23T05:27:15.704Z,9.81
2023-02-23T05:28:15.686Z,9.89
2023-02-23T05:29:15.676Z,9.99
2023-02-23T05:30:15.660Z,9.93
2023-02-23T05:31:15.756Z,9.99
2023-02-23T05:32:15.732Z,10.01
2023-02-23T05:33:18.133Z,9.93
2023-02-23T05:34:15.622Z,9.89
2023-02-23T05:35:15.593Z,9.88
2023-02-23T05:36:15.579Z,9.91
2023-02-23T05:37:15.564Z,9.83
2023-02-23T05:38:15.550Z,9.80
2023-02-23T05:39:15.546Z,9.85
2023-02-23T05:40:15.527Z,9.83
2023-02-23T05:41:15.508Z,9.88
2023-02-23T05:42:15.494Z,9.78
2023-02-23T05:43:15.483Z,9.86
2023-02-23T05:44:15.462Z,9.85
2023-02-23T05:45:15.454Z,9.74
2023-02-23T05:46:15.476Z,9.75
2023-02-23T05:47:15.425Z,9.70
2023-02-23T05:48:15.412Z,9.68
2023-02-23T05:49:15.395Z,9.71
2023-02-23T05:50:15.400Z,9.73
2023-02-23T05:51:15.368Z,9.75
2023-02-23T05:52:15.350Z,9.74
2023-02-23T05:53:15.342Z,9.75
2023-02-23T05:54:15.327Z,9.70
2023-02-23T05:55:15.330Z,9.75
2023-02-23T05:56:15.298Z,9.73
2023-02-23T05:57:15.287Z,9.60
2023-02-23T05:58:15.270Z,9.65
2023-02-23T05:59:15.263Z,9.62
2023-02-23T06:00:15.246Z,9.58
2023-02-23T06:01:15.236Z,9.73
2023-02-23T06:02:15.244Z,9.70
2023-02-23T06:03:15.270Z,9.68
2023-02-23T06:04:15.197Z,9.67
2023-02-23T06:05:15.181Z,9.65
2023-02-23T06:06:15.188Z,9.71
2023-02-23T06:07:15.157Z,9.74
2023-02-23T06:08:15.136Z,9.73
2023-02-23T06:09:15.129Z,9.68
2023-02-23T06:10:15.107Z,9.73
2023-02-23T06:11:15.097Z,9.65
2023-02-23T06:12:15.083Z,9.71
2023-02-23T06:13:15.074Z,9.71
2023-02-23T06:14:15.056Z,9.68
2023-02-23T06:15:15.043Z,9.74
2023-02-23T06:16:15.230Z,9.68
2023-02-23T06:17:15.065Z,9.70
2023-02-23T06:18:14.998Z,9.73
2023-02-23T06:19:14.990Z,9.68
2023-02-23T06:20:14.977Z,9.68
2023-02-23T06:21:15.018Z,9.70
2023-02-23T06:22:14.966Z,9.74
2023-02-23T06:23:14.936Z,9.73
2023-02-23T06:24:14.924Z,9.73
2023-02-23T06:25:14.906Z,9.77
2023-02-23T06:26:14.889Z,9.80
2023-02-23T06:27:14.933Z,9.74
2023-02-23T06:28:14.861Z,9.75
2023-02-23T06:29:14.851Z,9.75
2023-02-23T06:30:14.844Z,9.80
2023-02-23T06:31:14.881Z,9.78
2023-02-23T06:32:14.903Z,9.80
2023-02-23T06:33:14.796Z,9.80
2023-02-23T06:34:14.779Z,9.89
2023-02-23T06:35:14.794Z,9.80
2023-02-23T06:36:14.759Z,9.81
2023-02-23T06:37:14.738Z,9.75
2023-02-23T06:38:14.749Z,9.81
2023-02-23T06:39:14.756Z,9.91
2023-02-23T06:40:14.710Z,10.04
2023-02-23T06:41:14.694Z,9.88
2023-02-23T06:42:14.675Z,9.93
2023-02-23T06:43:14.681Z,9.99
2023-02-23T06:44:14.646Z,9.91
2023-02-23T06:45:14.629Z,9.95
2023-02-23T06:46:14.658Z,9.95
2023-02-23T06:47:14.612Z,9.92
2023-02-23T06:48:14.594Z,9.95
2023-02-23T06:49:16.565Z,9.96
2023-02-23T06:50:14.565Z,10.01
2023-02-23T06:51:14.548Z,10.06
2023-02-23T06:52:14.545Z,9.99
2023-02-23T06:53:14.520Z,10.11
2023-02-23T06:54:14.597Z,10.09
2023-02-23T06:55:14.499Z,9.98
2023-02-23T06:56:14.491Z,9.95
2023-02-23T06:57:14.466Z,10.06
2023-02-23T06:58:14.468Z,9.99
2023-02-23T06:59:14.439Z,10.01
2023-02-23T07:00:14.429Z,10.02
2023-02-23T07:01:14.411Z,10.02
2023-02-23T07:02:14.399Z,10.01
2023-02-23T07:03:14.401Z,10.14
2023-02-23T07:04:16.777Z,10.16
2023-02-23T07:05:14.373Z,10.14
2023-02-23T07:06:14.344Z,10.17
2023-02-23T07:07:14.327Z,10.16
2023-02-23T07:08:14.316Z,10.11
2023-02-23T07:09:14.299Z,10.16
2023-02-23T07:10:14.312Z,10.14
2023-02-23T07:11:14.273Z,10.16
2023-02-23T07:12:14.262Z,10.18
2023-02-23T07:13:14.243Z,10.20
2023-02-23T07:14:21.553Z,10.17
2023-02-23T07:15:14.216Z,10.22
2023-02-23T07:16:14.318Z,10.22
2023-02-23T07:17:14.192Z,10.26
2023-02-23T07:18:14.185Z,10.28
2023-02-23T07:19:14.160Z,10.20
2023-02-23T07:20:14.167Z,10.29
2023-02-23T07:21:14.145Z,10.31
2023-02-23T07:22:14.127Z,10.29
2023-02-23T07:23:14.114Z,10.34
2023-02-23T07:24:14.107Z,10.31
2023-02-23T07:25:14.080Z,10.36
2023-02-23T07:26:14.092Z,10.31
2023-02-23T07:27:14.106Z,10.32
2023-02-23T07:28:14.059Z,10.26
2023-02-23T07:29:14.026Z,10.22
2023-02-23T07:30:14.031Z,10.24
2023-02-23T07:31:14.010Z,10.24
2023-02-23T07:32:14.141Z,10.34
2023-02-23T07:33:13.995Z,10.32
2023-02-23T07:34:13.964Z,10.36
2023-02-23T07:35:13.949Z,10.32
2023-02-23T07:36:13.939Z,10.35
2023-02-23T07:37:13.942Z,10.28
2023-02-23T07:38:13.914Z,10.31
2023-02-23T07:39:13.897Z,10.34
2023-02-23T07:40:13.890Z,10.22
2023-02-23T07:41:13.870Z,10.31
2023-02-23T07:42:13.883Z,10.22
2023-02-23T07:43:13.845Z,10.24
2023-02-23T07:44:13.834Z,10.32
2023-02-23T07:45:13.824Z,10.34
2023-02-23T07:46:13.824Z,10.32
2023-02-23T07:47:13.794Z,10.31
2023-02-23T07:48:13.794Z,10.44
2023-02-23T07:49:13.772Z,10.36
2023-02-23T07:50:13.758Z,10.39
2023-02-23T07:51:13.742Z,10.42
2023-02-23T07:52:13.732Z,10.38
2023-02-23T07:53:13.716Z,10.42
2023-02-23T07:54:13.710Z,10.42
2023-02-23T07:55:13.689Z,10.49
2023-02-23T07:56:13.703Z,10.44
2023-02-23T07:57:13.664Z,10.46
2023-02-23T07:58:13.846Z,10.47
2023-02-23T07:59:13.639Z,10.58
2023-02-23T08:00:13.631Z,10.60
2023-02-23T08:01:13.665Z,10.49
2023-02-23T08:02:13.602Z,10.58
2023-02-23T08:03:13.585Z,10.63
2023-02-23T08:04:13.600Z,10.57
2023-02-23T08:05:13.565Z,10.72
2023-02-23T08:06:13.549Z,10.68
2023-02-23T08:07:13.536Z,10.72
2023-02-23T08:08:13.522Z,10.76
2023-02-23T08:09:13.507Z,10.87
2023-02-23T08:10:13.494Z,10.84
2023-02-23T08:11:13.477Z,10.95
2023-02-23T08:12:13.468Z,10.98
2023-02-23T08:13:13.454Z,11.01
2023-02-23T08:14:13.468Z,10.99
2023-02-23T08:15:13.429Z,10.98
2023-02-23T08:16:13.417Z,11.05
2023-02-23T08:17:13.406Z,11.05
2023-02-23T08:18:13.415Z,11.03
2023-02-23T08:19:13.371Z,11.23
2023-02-23T08:20:13.361Z,11.20
2023-02-23T08:21:13.549Z,11.09
2023-02-23T08:22:13.339Z,11.16
2023-02-23T08:23:13.331Z,11.19
2023-02-23T08:24:13.310Z,11.26
2023-02-23T08:25:13.297Z,11.28
2023-02-23T08:26:13.284Z,11.24
2023-02-23T08:27:13.275Z,11.20
2023-02-23T08:28:13.262Z,11.20
2023-02-23T08:29:13.252Z,11.42
2023-02-23T08:30:13.254Z,11.35
2023-02-23T08:31:13.371Z,11.46
2023-02-23T08:32:13.363Z,11.48
2023-02-23T08:33:13.190Z,11.64
2023-02-23T08:34:13.184Z,11.74
2023-02-23T08:35:13.174Z,11.84
2023-02-23T08:36:13.157Z,11.82
2023-02-23T08:37:13.139Z,11.85
2023-02-23T08:38:13.131Z,12.01
2023-02-23T08:39:13.118Z,12.08
2023-02-23T08:40:13.109Z,12.23
2023-02-23T08:41:13.088Z,12.33
2023-02-23T08:42:13.079Z,12.31
2023-02-23T08:43:13.066Z,12.31
2023-02-23T08:44:13.054Z,12.38
2023-02-23T08:45:13.040Z,12.48
2023-02-23T08:46:13.051Z,12.54
2023-02-23T08:47:13.013Z,12.66
2023-02-23T08:48:13.004Z,12.66
2023-02-23T08:49:12.998Z,12.69
2023-02-23T08:50:12.982Z,12.66
2023-02-23T08:51:12.964Z,12.77
2023-02-23T08:52:12.953Z,12.79
2023-02-23T08:53:12.939Z,12.95
2023-02-23T08:54:12.929Z,12.96
2023-02-23T08:55:12.914Z,13.01
2023-02-23T08:56:12.910Z,12.95
2023-02-23T08:57:12.889Z,13.09
2023-02-23T08:58:12.882Z,13.16
2023-02-23T08:59:12.865Z,13.19
2023-02-23T09:00:12.856Z,13.22
2023-02-23T09:01:12.862Z,13.19
2023-02-23T09:02:12.914Z,13.36
2023-02-23T09:03:12.817Z,13.43
2023-02-23T09:04:12.807Z,13.54
2023-02-23T09:05:12.847Z,13.65
2023-02-23T09:06:12.788Z,13.72
2023-02-23T09:07:12.770Z,13.66
2023-02-23T09:08:12.760Z,13.75
2023-02-23T09:09:12.746Z,13.80
2023-02-23T09:10:12.740Z,13.80
2023-02-23T09:11:12.722Z,13.86
2023-02-23T09:12:12.715Z,13.86
2023-02-23T09:13:12.701Z,13.88
2023-02-23T09:14:12.694Z,13.87
2023-02-23T09:15:12.680Z,13.84
2023-02-23T09:16:12.720Z,13.80
2023-02-23T09:17:12.653Z,13.72
2023-02-23T09:18:12.672Z,13.69
2023-02-23T09:19:12.638Z,13.71
2023-02-23T09:20:12.629Z,13.62
2023-02-23T09:21:12.609Z,13.65
2023-02-23T09:22:12.603Z,13.66
2023-02-23T09:23:12.603Z,13.68
2023-02-23T09:24:12.578Z,13.69
2023-02-23T09:25:12.564Z,13.68
2023-02-23T09:26:12.559Z,13.72
2023-02-23T09:27:12.545Z,13.66
2023-02-23T09:28:12.535Z,13.72
2023-02-23T09:29:12.530Z,13.71
2023-02-23T09:30:12.512Z,13.71
2023-02-23T09:31:12.617Z,13.69
2023-02-23T09:32:12.627Z,13.68
2023-02-23T09:33:12.483Z,13.72
2023-02-23T09:34:12.538Z,13.68
2023-02-23T09:35:12.453Z,13.80
2023-02-23T09:36:12.451Z,13.81
2023-02-23T09:37:12.429Z,13.86
2023-02-23T09:38:12.422Z,13.98
2023-02-23T09:39:12.411Z,14.08
2023-02-23T09:40:12.403Z,14.09
2023-02-23T09:41:12.387Z,14.31
2023-02-23T09:42:12.379Z,14.44
2023-02-23T09:43:12.365Z,14.54
2023-02-23T09:44:12.356Z,14.63
2023-02-23T09:45:12.342Z,14.72
2023-02-23T09:46:12.463Z,14.66
2023-02-23T09:47:12.321Z,14.69
2023-02-23T09:48:12.313Z,14.79
2023-02-23T09:49:12.299Z,14.82
2023-02-23T09:50:12.309Z,14.87
2023-02-23T09:51:12.282Z,15.00
2023-02-23T09:52:12.568Z,15.05
2023-02-23T09:53:12.267Z,15.16
2023-02-23T09:54:12.250Z,15.25
2023-02-23T09:55:12.237Z,15.34
2023-02-23T09:56:12.239Z,15.35
2023-02-23T09:57:12.221Z,15.34
2023-02-23T09:58:12.211Z,15.48
2023-02-23T09:59:12.200Z,15.38
2023-02-23T10:00:12.189Z,15.48
2023-02-23T10:01:12.191Z,15.52
2023-02-23T10:02:12.169Z,15.37
2023-02-23T10:03:12.167Z,15.53
2023-02-23T10:04:12.149Z,15.59
2023-02-23T10:05:12.155Z,15.60
2023-02-23T10:06:12.185Z,15.58
2023-02-23T10:07:12.118Z,15.67
2023-02-23T10:08:12.109Z,15.70
2023-02-23T10:09:12.105Z,15.77
2023-02-23T10:10:12.119Z,15.86
2023-02-23T10:11:12.077Z,15.91
2023-02-23T10:12:12.068Z,15.85
2023-02-23T10:13:12.057Z,15.89
2023-02-23T10:14:12.050Z,15.99
2023-02-23T10:15:12.037Z,16.10
2023-02-23T10:16:12.102Z,16.11
2023-02-23T10:17:12.016Z,16.10
2023-02-23T10:18:12.019Z,16.26
2023-02-23T10:19:11.999Z,16.16
2023-02-23T10:20:12.010Z,16.08
2023-02-23T10:21:11.991Z,16.22
2023-02-23T10:22:11.995Z,16.27
2023-02-23T10:23:11.961Z,16.25
2023-02-23T10:24:11.954Z,16.25
2023-02-23T10:25:11.944Z,16.23
2023-02-23T10:26:11.937Z,16.10
2023-02-23T10:27:11.926Z,15.89
2023-02-23T10:28:11.913Z,15.81
2023-02-23T10:29:11.902Z,15.89
2023-02-23T10:30:11.896Z,15.84
2023-02-23T10:31:12.046Z,15.96
2023-02-23T10:32:11.948Z,16.17
2023-02-23T10:33:11.864Z,16.33
2023-02-23T10:34:11.862Z,16.34
2023-02-23T10:35:11.854Z,16.44
2023-02-23T10:36:13.780Z,16.33
2023-02-23T10:37:11.823Z,16.48
2023-02-23T10:38:11.900Z,16.54
2023-02-23T10:39:11.810Z,16.41
2023-02-23T10:40:11.801Z,16.18
2023-02-23T10:41:14.643Z,15.85
2023-02-23T10:42:11.781Z,15.76
2023-02-23T10:43:11.768Z,15.76
2023-02-23T10:44:16.986Z,15.70
2023-02-23T10:45:11.749Z,15.76
2023-02-23T10:46:11.757Z,15.81
2023-02-23T10:47:11.733Z,15.89
2023-02-23T10:48:11.802Z,15.99
2023-02-23T10:49:11.712Z,16.08
2023-02-23T10:50:11.731Z,16.06
2023-02-23T10:51:11.697Z,16.11
2023-02-23T10:52:11.686Z,16.07
2023-02-23T10:53:11.677Z,15.99
2023-02-23T10:54:11.702Z,16.08
2023-02-23T10:55:11.661Z,16.03
2023-02-23T10:56:11.649Z,15.91
2023-02-23T10:57:11.641Z,15.78
2023-02-23T10:58:11.627Z,15.70
2023-02-23T10:59:11.622Z,15.66
2023-02-23T11:00:11.646Z,15.70
2023-02-23T11:01:11.615Z,15.71
2023-02-23T11:02:11.622Z,15.76
2023-02-23T11:03:11.581Z,15.85
2023-02-23T11:04:11.589Z,15.89
2023-02-23T11:05:11.563Z,15.92
2023-02-23T11:06:11.556Z,16.10
2023-02-23T11:07:11.550Z,16.25
2023-02-23T11:08:11.551Z,16.29
2023-02-23T11:09:11.531Z,16.34
2023-02-23T11:10:11.562Z,16.26
2023-02-23T11:11:11.511Z,16.36
2023-02-23T11:12:11.499Z,16.47
2023-02-23T11:13:11.489Z,16.65
2023-02-23T11:14:11.476Z,16.82
2023-02-23T11:15:11.473Z,16.70
2023-02-23T11:16:11.545Z,16.82
2023-02-23T11:17:11.449Z,16.95
2023-02-23T11:18:11.438Z,16.91
2023-02-23T11:19:11.431Z,17.02
2023-02-23T11:20:11.418Z,17.07
2023-02-23T11:21:11.420Z,17.28
2023-02-23T11:22:11.403Z,17.30
2023-02-23T11:23:14.806Z,17.27
2023-02-23T11:24:11.393Z,17.24
2023-02-23T11:25:11.378Z,17.38
2023-02-23T11:26:11.386Z,17.32
2023-02-23T11:27:11.360Z,17.42
2023-02-23T11:28:11.350Z,17.49
2023-02-23T11:29:11.344Z,17.54
2023-02-23T11:31:11.460Z,17.74
2023-02-23T11:32:11.437Z,17.74
2023-02-23T11:33:11.303Z,17.77
2023-02-23T11:34:11.301Z,17.77
2023-02-23T11:35:11.289Z,17.92
2023-02-23T11:36:11.282Z,17.35
2023-02-23T11:37:11.274Z,17.35
2023-02-23T11:38:11.266Z,17.25
2023-02-23T11:39:11.254Z,17.35
2023-02-23T11:40:11.249Z,17.27
2023-02-23T11:41:11.237Z,17.21
2023-02-23T11:42:11.250Z,17.25
2023-02-23T11:43:11.220Z,17.39
2023-02-23T11:44:11.226Z,17.27
2023-02-23T11:45:11.210Z,17.27
2023-02-23T11:46:11.248Z,16.85
2023-02-23T11:47:11.271Z,16.52
2023-02-23T11:48:11.183Z,16.78
2023-02-23T11:49:11.172Z,16.80
2023-02-23T11:50:11.168Z,16.91
2023-02-23T11:51:11.156Z,17.02
2023-02-23T11:52:11.148Z,17.17
2023-02-23T11:53:11.138Z,17.15
2023-02-23T11:54:11.134Z,17.27
2023-02-23T11:55:11.124Z,17.32
2023-02-23T11:56:11.240Z,17.15
2023-02-23T11:58:11.122Z,16.57
2023-02-23T11:59:11.094Z,16.54
2023-02-23T12:00:11.081Z,16.55
2023-02-23T12:01:11.075Z,16.60
2023-02-23T12:02:11.067Z,16.75
2023-02-23T12:03:11.145Z,16.91
2023-02-23T12:04:11.064Z,17.10
2023-02-23T12:05:11.077Z,16.95
2023-02-23T12:06:11.086Z,16.98
2023-02-23T12:07:11.027Z,16.81
2023-02-23T12:08:11.040Z,16.80
2023-02-23T12:09:11.009Z,16.69
2023-02-23T12:10:10.999Z,16.80
2023-02-23T12:11:10.995Z,16.82
2023-02-23T12:12:10.981Z,16.75
2023-02-23T12:13:10.980Z,16.87
2023-02-23T12:14:11.000Z,17.02
2023-02-23T12:15:10.963Z,16.98
2023-02-23T12:16:10.994Z,16.96
2023-02-23T12:17:10.942Z,16.85
2023-02-23T12:18:10.931Z,16.73
2023-02-23T12:19:10.969Z,16.73
2023-02-23T12:20:10.916Z,16.75
2023-02-23T12:21:10.908Z,16.75
2023-02-23T12:22:10.898Z,16.78
2023-02-23T12:23:10.895Z,16.80
2023-02-23T12:24:10.883Z,16.88
2023-02-23T12:25:10.875Z,17.00
2023-02-23T12:26:10.867Z,17.06
2023-02-23T12:27:10.858Z,17.05
2023-02-23T12:28:18.898Z,16.87
2023-02-23T12:29:10.844Z,16.91
2023-02-23T12:30:10.856Z,16.73
2023-02-23T12:31:10.823Z,16.84
2023-02-23T12:32:10.966Z,16.72
2023-02-23T12:33:10.808Z,16.72
2023-02-23T12:34:10.797Z,16.75
2023-02-23T12:35:10.790Z,16.67
2023-02-23T12:36:10.813Z,16.51
2023-02-23T12:37:10.772Z,16.52
2023-02-23T12:38:10.761Z,16.70
2023-02-23T12:39:10.778Z,16.75
2023-02-23T12:40:10.747Z,16.69
2023-02-23T12:41:10.734Z,16.67
2023-02-23T12:42:10.724Z,16.72
2023-02-23T12:43:10.718Z,16.77
2023-02-23T12:44:10.706Z,16.54
2023-02-23T12:45:10.701Z,16.52
2023-02-23T12:46:10.824Z,16.52
2023-02-23T12:48:10.674Z,16.63
2023-02-23T12:49:10.662Z,16.72
2023-02-23T12:50:10.662Z,16.75
2023-02-23T12:51:10.645Z,16.78
2023-02-23T12:52:10.637Z,16.69
2023-02-23T12:53:10.676Z,16.54
2023-02-23T12:54:10.625Z,16.54
2023-02-23T12:55:10.612Z,16.66
2023-02-23T12:56:10.607Z,16.69
2023-02-23T12:57:10.592Z,16.67
2023-02-23T12:58:10.637Z,16.59
2023-02-23T12:59:10.579Z,16.59
2023-02-23T13:00:10.572Z,16.54
2023-02-23T13:01:10.628Z,16.55
2023-02-23T13:02:10.651Z,16.47
2023-02-23T13:03:10.540Z,16.40